Terminal Aerodrome Forecast
Issued by NWS

Home | Current Version | Previous Version | Text Only | Print | Product List | Glossary On
Versions: 1 2 3 4 5 6 7 8 9 10 11 12 13 14 15 16 17 18 19 20
000
FTUS46 KSGX 210500
TAFONT
TAF
KONT 210520Z 2106/2212 VRB04KT P6SM FEW007
     FM211100 VRB02KT 3SM BR VCFG OVC005
      TEMPO 2113/2116 1/2SM FG VV001
     FM211700 VRB05KT 5SM HZ SCT010
     FM212100 25008KT P6SM SKC
     FM220300 VRB04KT P6SM SKC=

USA.gov is the U.S. government's official web portal to all federal, state and local government web resources and services.